Airfield :
LOGIN :

Register | Disclaimer

   EN    FR    IT 

 










Legend :    VFR   Marginal VFR   IFR   Intensive IFR   Very Intensive IFR
Visi :
Ceiling :
>= 8 km
>= 3000ft
5 to 8 km
1000 to 3000 ft
1500m to 5 km
500 to 1000 ft
800 to 1500m
200 to 500 ft
< 800m
< 200 ft
Symbols :   Thunderstorms  Fog  Heavy snow  Heavy precipitations  Wind > 20 kt
SIGMETs :     Misc.  Thunderstorms  Icing  Turbulence  Mountain Waves  Volcanic Ashes






- Airport Elevation : 86 ft
- IATA code : HAU


ENHD - Haugesund

CURRENT METAR :
  • 161250Z 20009KT 9999 BKN013 BKN018 16/13 Q1011

EXPIRED METARs :
  • 161220Z 21008KT 9999 BKN013 BKN018 16/13 Q1010
  • 161150Z 20010KT 9999 BKN010 BKN016 16/13 Q1010
  • 161120Z 21010KT 9999 SCT010 BKN014 16/13 Q1010
  • 161050Z 20008KT 160V220 9999 BKN010 BKN022 16/13 Q1010
  • 161020Z 21006KT 170V230 9999 VCSH SCT008 BKN013 15/13 Q1010
  • 160950Z 21007KT 9999 VCSH SCT004 BKN011 15/13 Q1010
  • 160920Z 22009KT 9999 VCSH SCT003 BKN005 BKN011 15/13 Q1010
  • 160850Z 21007KT 9999 -SHRA FEW010 SCT032 BKN041 16/13 Q1010
  • 160820Z 18008KT 160V220 9999 VCSH FEW007 SCT014 BKN030 15/13 Q1010

TAF TAF ENHD
Valid from the 16 at 12:00 until the 16 at 21:00 UTC


161100Z 1612/1621 20008KT 9999 SCT010 BKN020
TEMPO 1612/1615 BKN008
TEMPO 1615/1621 SHRA BKN008 SCT030CB
BECMG 1616/1618 35010KT



MET'MAP, your aeronautical weather chart ! - Copyright ORBIFLY December 2007 - Disclaimer

ORBIFLY MET'MAP TEAM :

Programming & Development : Alexandra Zaïnal
Original concept : Baudouin d'Aumeries
Technical & hardware support : Manuel Goepfert
Assistance : Marc-Olivier Méhu




SOURCES & CREDITS :

   NOAA